createdAt,value
2018-10-09T00:00:30.154Z,128.60
2018-10-09T00:01:30.149Z,119.80
2018-10-09T00:02:30.111Z,127.40
2018-10-09T00:03:30.109Z,123.20
2018-10-09T00:04:30.107Z,120.10
2018-10-09T00:05:30.100Z,119.10
2018-10-09T00:06:30.128Z,113.30
2018-10-09T00:07:30.101Z,107.60
2018-10-09T00:08:30.094Z,97.80
2018-10-09T00:09:30.093Z,91.80
2018-10-09T00:10:30.117Z,98.70
2018-10-09T00:11:30.085Z,95.40
2018-10-09T00:12:30.087Z,92.80
2018-10-09T00:13:30.078Z,86.80
2018-10-09T00:14:30.078Z,88.90
2018-10-09T00:15:30.106Z,81.20
2018-10-09T00:16:30.070Z,85.60
2018-10-09T00:17:30.074Z,104.90
2018-10-09T00:18:30.066Z,125.50
2018-10-09T00:19:30.062Z,113.10
2018-10-09T00:20:30.094Z,135.70
2018-10-09T00:21:30.058Z,126.40
2018-10-09T00:22:30.056Z,128.00
2018-10-09T00:23:30.054Z,118.30
2018-10-09T00:24:30.051Z,117.50
2018-10-09T00:25:30.075Z,112.90
2018-10-09T00:26:30.070Z,120.10
2018-10-09T00:27:30.039Z,124.50
2018-10-09T00:28:30.035Z,122.30
2018-10-09T00:29:30.031Z,126.00
2018-10-09T00:30:30.031Z,134.80
2018-10-09T00:31:30.055Z,123.60
2018-10-09T00:32:30.021Z,127.10
2018-10-09T00:33:30.019Z,127.00
2018-10-09T00:34:30.015Z,130.80
2018-10-09T00:35:30.017Z,121.00
2018-10-09T00:36:30.045Z,143.60
2018-10-09T00:37:30.007Z,129.50
2018-10-09T00:38:30.007Z,136.30
2018-10-09T00:39:30.004Z,144.50
2018-10-09T00:40:29.996Z,135.70
2018-10-09T00:41:30.025Z,133.60
2018-10-09T00:42:29.995Z,118.80
2018-10-09T00:43:29.992Z,121.90
2018-10-09T00:44:29.988Z,122.90
2018-10-09T00:45:29.981Z,127.80
2018-10-09T00:46:30.008Z,115.80
2018-10-09T00:47:29.975Z,114.90
2018-10-09T00:48:29.974Z,114.60
2018-10-09T00:49:29.972Z,123.60
2018-10-09T00:50:30.025Z,140.60
2018-10-09T00:51:29.968Z,149.60
2018-10-09T00:52:29.961Z,144.10
2018-10-09T00:53:29.962Z,140.60
2018-10-09T00:54:29.957Z,140.20
2018-10-09T00:55:29.983Z,138.40
2018-10-09T00:56:29.945Z,136.10
2018-10-09T00:57:29.973Z,147.00
2018-10-09T00:58:29.950Z,148.40
2018-10-09T00:59:29.941Z,143.80
2018-10-09T01:00:29.968Z,151.10
2018-10-09T01:01:29.934Z,151.60
2018-10-09T01:02:29.936Z,152.00
2018-10-09T01:03:29.924Z,160.60
2018-10-09T01:04:29.926Z,145.90
2018-10-09T01:05:29.950Z,138.30
2018-10-09T01:06:29.920Z,144.70
2018-10-09T01:07:29.933Z,130.80
2018-10-09T01:08:29.917Z,135.90
2018-10-09T01:09:29.916Z,135.90
2018-10-09T01:10:29.935Z,129.50
2018-10-09T01:11:29.904Z,140.40
2018-10-09T01:12:29.906Z,133.30
2018-10-09T01:13:29.901Z,130.70
2018-10-09T01:14:29.897Z,128.80
2018-10-09T01:15:29.918Z,118.70
2018-10-09T01:16:29.894Z,126.90
2018-10-09T01:17:29.887Z,126.00
2018-10-09T01:18:29.885Z,125.60
2018-10-09T01:19:29.879Z,129.00
2018-10-09T01:20:29.901Z,138.20
2018-10-09T01:21:29.875Z,122.20
2018-10-09T01:22:29.908Z,131.40
2018-10-09T01:23:29.869Z,127.30
2018-10-09T01:24:29.874Z,141.00
2018-10-09T01:25:29.864Z,134.90
2018-10-09T01:26:29.885Z,124.90
2018-10-09T01:27:29.856Z,116.40
2018-10-09T01:28:29.850Z,118.30
2018-10-09T01:29:29.852Z,123.50
2018-10-09T01:30:29.877Z,125.40
2018-10-09T01:31:29.849Z,122.90
2018-10-09T01:32:29.873Z,131.50
2018-10-09T01:33:29.841Z,136.30
2018-10-09T01:34:29.842Z,139.50
2018-10-09T01:35:29.848Z,140.10
2018-10-09T01:36:29.855Z,119.50
2018-10-09T01:37:29.828Z,118.10
2018-10-09T01:38:29.825Z,125.40
2018-10-09T01:39:29.821Z,124.40
2018-10-09T01:40:29.845Z,117.80
2018-10-09T01:41:29.815Z,120.60
2018-10-09T01:42:29.810Z,122.60
2018-10-09T01:43:29.814Z,116.20
2018-10-09T01:44:29.807Z,125.00
2018-10-09T01:45:29.833Z,116.10
2018-10-09T01:46:29.799Z,113.10
2018-10-09T01:47:29.789Z,114.30
2018-10-09T01:48:29.795Z,116.60
2018-10-09T01:49:29.793Z,116.20
2018-10-09T01:50:29.810Z,122.60
2018-10-09T01:51:29.783Z,119.90
2018-10-09T01:52:29.806Z,120.10
2018-10-09T01:53:29.781Z,118.10
2018-10-09T01:54:29.774Z,121.80
2018-10-09T01:55:29.798Z,119.80
2018-10-09T01:56:29.769Z,105.00
2018-10-09T01:57:29.798Z,106.20
2018-10-09T01:58:29.762Z,112.80
2018-10-09T01:59:29.760Z,114.50
2018-10-09T02:00:29.756Z,116.90
2018-10-09T02:01:29.780Z,117.20
2018-10-09T02:02:29.754Z,126.70
2018-10-09T02:03:29.740Z,133.80
2018-10-09T02:04:29.743Z,123.70
2018-10-09T02:05:29.741Z,123.00
2018-10-09T02:06:29.763Z,131.00
2018-10-09T02:07:29.734Z,128.70
2018-10-09T02:08:29.733Z,116.40
2018-10-09T02:09:29.728Z,120.40
2018-10-09T02:10:29.724Z,119.70
2018-10-09T02:11:29.748Z,125.20
2018-10-09T02:12:29.719Z,128.70
2018-10-09T02:13:29.712Z,122.60
2018-10-09T02:14:29.710Z,135.40
2018-10-09T02:15:29.713Z,125.40
2018-10-09T02:16:29.733Z,132.60
2018-10-09T02:17:29.702Z,129.10
2018-10-09T02:18:29.701Z,133.00
2018-10-09T02:19:29.692Z,133.70
2018-10-09T02:20:29.702Z,128.60
2018-10-09T02:21:29.718Z,122.00
2018-10-09T02:22:29.683Z,125.50
2018-10-09T02:23:29.681Z,130.30
2018-10-09T02:24:29.673Z,111.20
2018-10-09T02:25:29.678Z,121.80
2018-10-09T02:26:29.704Z,120.50
2018-10-09T02:27:29.696Z,119.40
2018-10-09T02:28:29.672Z,120.40
2018-10-09T02:29:29.662Z,112.90
2018-10-09T02:30:29.660Z,120.30
2018-10-09T02:31:29.656Z,129.50
2018-10-09T02:32:29.683Z,120.30
2018-10-09T02:33:29.738Z,115.30
2018-10-09T02:34:29.647Z,122.60
2018-10-09T02:35:29.645Z,104.30
2018-10-09T02:36:29.643Z,116.70
2018-10-09T02:37:29.663Z,109.10
2018-10-09T02:38:29.635Z,126.40
2018-10-09T02:39:29.632Z,108.40
2018-10-09T02:40:29.628Z,113.20
2018-10-09T02:41:29.654Z,107.80
2018-10-09T02:42:29.620Z,131.60
2018-10-09T02:43:29.615Z,128.60
2018-10-09T02:44:29.618Z,123.50
2018-10-09T02:45:29.611Z,126.10
2018-10-09T02:46:29.635Z,117.00
2018-10-09T02:47:29.603Z,118.00
2018-10-09T02:48:29.600Z,122.00
2018-10-09T02:49:29.600Z,131.00
2018-10-09T02:50:29.596Z,117.00
2018-10-09T02:51:29.639Z,98.20
2018-10-09T02:52:29.589Z,86.30
2018-10-09T02:53:29.584Z,91.80
2018-10-09T02:54:29.581Z,117.70
2018-10-09T02:55:29.576Z,117.70
2018-10-09T02:56:29.605Z,188.20
2018-10-09T02:57:29.572Z,253.90
2018-10-09T02:58:29.562Z,258.40
2018-10-09T02:59:29.566Z,229.10
2018-10-09T03:00:29.589Z,215.00
2018-10-09T03:01:29.553Z,256.40
2018-10-09T03:02:29.583Z,231.60
2018-10-09T03:03:29.549Z,196.00
2018-10-09T03:04:29.545Z,613.80
2018-10-09T03:05:29.541Z,526.10
2018-10-09T03:06:29.565Z,473.60
2018-10-09T03:07:29.535Z,620.40
2018-10-09T03:08:29.540Z,593.80
2018-10-09T03:09:29.530Z,588.00
2018-10-09T03:10:29.560Z,320.00
2018-10-09T03:11:29.519Z,300.30
2018-10-09T03:12:29.520Z,357.70
2018-10-09T03:13:29.542Z,358.00
2018-10-09T03:14:29.516Z,332.60
2018-10-09T03:15:29.504Z,411.50
2018-10-09T03:16:29.535Z,375.60
2018-10-09T03:17:29.504Z,359.60
2018-10-09T03:18:29.497Z,297.00
2018-10-09T03:19:29.635Z,234.60
2018-10-09T03:20:29.525Z,204.30
2018-10-09T03:21:29.515Z,162.00
2018-10-09T03:22:29.483Z,148.40
2018-10-09T03:23:29.479Z,144.80
2018-10-09T03:24:29.479Z,141.40
2018-10-09T03:25:29.476Z,123.20
2018-10-09T03:26:29.507Z,123.60
2018-10-09T03:27:29.466Z,118.80
2018-10-09T03:28:29.462Z,104.00
2018-10-09T03:29:29.461Z,122.60
2018-10-09T03:30:29.459Z,124.90
2018-10-09T03:31:29.484Z,116.90
2018-10-09T03:32:29.448Z,121.90
2018-10-09T03:33:29.444Z,123.70
2018-10-09T03:34:29.444Z,144.60
2018-10-09T03:35:29.440Z,134.80
2018-10-09T03:36:29.463Z,130.40
2018-10-09T03:37:29.429Z,134.30
2018-10-09T03:38:29.433Z,131.40
2018-10-09T03:39:29.424Z,124.30
2018-10-09T03:40:29.421Z,104.80
2018-10-09T03:41:29.444Z,97.60
2018-10-09T03:42:29.416Z,92.80
2018-10-09T03:43:29.414Z,88.50
2018-10-09T03:44:29.405Z,88.00
2018-10-09T03:45:29.404Z,98.90
2018-10-09T03:46:29.428Z,113.10
2018-10-09T03:47:29.396Z,127.10
2018-10-09T03:48:29.394Z,125.40
2018-10-09T03:49:29.389Z,128.40
2018-10-09T03:50:29.385Z,134.60
2018-10-09T03:51:29.409Z,119.70
2018-10-09T03:52:29.376Z,127.20
2018-10-09T03:53:29.378Z,120.50
2018-10-09T03:54:29.412Z,122.90
2018-10-09T03:55:29.366Z,112.60
2018-10-09T03:56:29.389Z,127.50
2018-10-09T03:57:29.362Z,144.70
2018-10-09T03:58:29.358Z,164.40
2018-10-09T03:59:29.350Z,164.70
2018-10-09T04:00:29.353Z,143.80
2018-10-09T04:01:29.385Z,142.00
2018-10-09T04:02:29.342Z,135.40
2018-10-09T04:03:29.339Z,127.90
2018-10-09T04:04:29.334Z,126.30
2018-10-09T04:05:29.335Z,128.70
2018-10-09T04:06:29.359Z,131.70
2018-10-09T04:07:29.323Z,127.40
2018-10-09T04:08:29.319Z,145.90
2018-10-09T04:09:29.367Z,136.60
2018-10-09T04:10:29.314Z,132.60
2018-10-09T04:11:29.340Z,119.70
2018-10-09T04:12:29.320Z,144.40
2018-10-09T04:13:34.276Z,142.70
2018-10-09T04:14:29.299Z,142.20
2018-10-09T04:15:29.290Z,148.40
2018-10-09T04:16:29.323Z,164.90
2018-10-09T04:17:29.289Z,159.80
2018-10-09T04:18:29.313Z,167.80
2018-10-09T04:19:29.283Z,230.90
2018-10-09T04:20:29.271Z,280.60
2018-10-09T04:21:29.277Z,387.70
2018-10-09T04:22:29.296Z,375.40
2018-10-09T04:23:29.265Z,430.20
2018-10-09T04:24:29.263Z,322.80
2018-10-09T04:25:29.260Z,393.20
2018-10-09T04:26:29.265Z,518.60
2018-10-09T04:27:29.279Z,514.30
2018-10-09T04:28:29.248Z,495.10
2018-10-09T04:29:29.329Z,470.60
2018-10-09T04:30:29.240Z,430.90
2018-10-09T04:31:29.245Z,330.80
2018-10-09T04:32:29.261Z,278.50
2018-10-09T04:33:29.229Z,282.60
2018-10-09T04:34:29.232Z,266.00
2018-10-09T04:35:29.233Z,207.00
2018-10-09T04:36:29.221Z,196.50
2018-10-09T04:37:29.244Z,181.90
2018-10-09T04:38:29.212Z,182.50
2018-10-09T04:39:29.212Z,171.90
2018-10-09T04:40:29.205Z,166.80
2018-10-09T04:41:29.201Z,178.60
2018-10-09T04:42:29.368Z,156.60
2018-10-09T04:43:29.215Z,164.40
2018-10-09T04:44:29.195Z,183.80
2018-10-09T04:45:29.265Z,243.90
2018-10-09T04:46:29.190Z,268.00
2018-10-09T04:47:29.210Z,259.80
2018-10-09T04:48:29.178Z,196.10
2018-10-09T04:49:29.171Z,158.60
2018-10-09T04:50:29.174Z,246.10
2018-10-09T04:51:29.169Z,284.70
2018-10-09T04:52:29.191Z,240.20
2018-10-09T04:53:29.162Z,245.90
2018-10-09T04:54:29.158Z,258.10
2018-10-09T04:55:29.154Z,253.40
2018-10-09T04:56:29.149Z,233.20
2018-10-09T04:57:30.683Z,220.30
2018-10-09T04:58:29.144Z,198.40
2018-10-09T04:59:29.139Z,177.20
2018-10-09T05:00:29.153Z,163.90
2018-10-09T05:01:29.135Z,163.20
2018-10-09T05:02:29.164Z,156.10
2018-10-09T05:03:29.129Z,147.20
2018-10-09T05:04:29.125Z,135.40
2018-10-09T05:05:29.119Z,129.50
2018-10-09T05:06:29.904Z,175.90
2018-10-09T05:07:31.222Z,147.70
2018-10-09T05:08:31.084Z,152.60
2018-10-09T05:09:30.966Z,171.10
2018-10-09T05:10:29.110Z,186.70
2018-10-09T05:11:29.100Z,206.10
2018-10-09T05:12:29.125Z,197.20
2018-10-09T05:13:29.094Z,231.10
2018-10-09T05:14:29.084Z,171.10
2018-10-09T05:15:29.084Z,116.80
2018-10-09T05:16:29.080Z,138.20
2018-10-09T05:17:29.104Z,129.00
2018-10-09T05:18:29.076Z,133.60
2018-10-09T05:19:29.095Z,104.20
2018-10-09T05:20:29.072Z,110.50
2018-10-09T05:21:29.065Z,99.20
2018-10-09T05:22:29.066Z,92.80
2018-10-09T05:23:29.084Z,95.40
2018-10-09T05:24:34.183Z,132.50
2018-10-09T05:25:29.721Z,120.70
2018-10-09T05:26:32.319Z,261.50
2018-10-09T05:27:29.073Z,142.20
2018-10-09T05:28:30.192Z,81.10
2018-10-09T05:29:29.073Z,92.40
2018-10-09T05:30:31.210Z,102.40
2018-10-09T05:31:32.204Z,132.80
2018-10-09T05:32:30.198Z,230.50
2018-10-09T05:33:32.390Z,257.20
2018-10-09T05:34:29.053Z,209.10
2018-10-09T05:35:29.018Z,190.10
2018-10-09T05:36:29.014Z,283.00
2018-10-09T05:37:29.062Z,208.00
2018-10-09T05:38:29.687Z,176.80
2018-10-09T05:39:29.299Z,207.40
2018-10-09T05:40:29.258Z,175.50
2018-10-09T05:41:33.013Z,269.50
2018-10-09T05:42:30.684Z,165.50
2018-10-09T05:43:31.267Z,612.30
2018-10-09T05:44:29.229Z,371.20
2018-10-09T05:45:28.981Z,351.60
2018-10-09T05:46:29.012Z,279.60
2018-10-09T05:47:28.964Z,307.10
2018-10-09T05:48:28.999Z,311.90
2018-10-09T05:49:29.006Z,183.20
2018-10-09T05:50:29.168Z,145.50
2018-10-09T05:51:28.971Z,145.70
2018-10-09T05:52:29.009Z,198.70
2018-10-09T05:53:28.967Z,161.70
2018-10-09T05:54:28.961Z,130.60
2018-10-09T05:55:28.945Z,133.20
2018-10-09T05:56:28.978Z,145.50
2018-10-09T05:57:28.942Z,173.00
2018-10-09T05:58:28.941Z,163.40
2018-10-09T05:59:28.971Z,201.30
2018-10-09T06:00:28.939Z,205.90
2018-10-09T06:01:28.938Z,234.50
2018-10-09T06:02:28.965Z,372.60
2018-10-09T06:03:28.919Z,331.10
2018-10-09T06:04:28.926Z,267.70
2018-10-09T06:05:28.917Z,190.90
2018-10-09T06:06:28.952Z,195.30
2018-10-09T06:07:28.910Z,193.70
2018-10-09T06:08:28.937Z,232.60
2018-10-09T06:09:28.908Z,235.80
2018-10-09T06:10:28.907Z,186.90
2018-10-09T06:11:28.903Z,218.90
2018-10-09T06:12:28.922Z,213.90
2018-10-09T06:13:28.899Z,205.00
2018-10-09T06:14:28.879Z,194.00
2018-10-09T06:15:28.974Z,181.30
2018-10-09T06:16:28.883Z,156.20
2018-10-09T06:17:28.907Z,148.20
2018-10-09T06:18:28.879Z,170.30
2018-10-09T06:19:28.873Z,145.10
2018-10-09T06:20:28.877Z,118.60
2018-10-09T06:21:28.876Z,102.90
2018-10-09T06:22:28.922Z,94.60
2018-10-09T06:23:28.875Z,110.60
2018-10-09T06:24:28.870Z,98.80
2018-10-09T06:25:28.860Z,142.60
2018-10-09T06:26:28.892Z,106.20
2018-10-09T06:27:28.861Z,82.40
2018-10-09T06:28:28.974Z,95.40
2018-10-09T06:29:28.858Z,90.90
2018-10-09T06:30:28.859Z,70.20
2018-10-09T06:31:28.866Z,83.20
2018-10-09T06:32:28.843Z,85.70
2018-10-09T06:33:28.848Z,86.80
2018-10-09T06:34:28.837Z,72.20
2018-10-09T06:35:28.835Z,62.90
2018-10-09T06:36:28.867Z,64.90
2018-10-09T06:37:28.836Z,49.10
2018-10-09T06:38:28.833Z,43.00
2018-10-09T06:39:28.834Z,48.30
2018-10-09T06:40:28.881Z,45.20
2018-10-09T06:41:28.860Z,45.20
2018-10-09T06:42:28.826Z,47.80
2018-10-09T06:43:28.823Z,40.20
2018-10-09T06:44:28.821Z,34.00
2018-10-09T06:45:28.828Z,33.70
2018-10-09T06:46:28.871Z,30.60
2018-10-09T06:47:28.867Z,32.20
2018-10-09T06:48:28.817Z,31.70
2018-10-09T06:49:28.823Z,30.30
2018-10-09T06:50:28.816Z,31.40
2018-10-09T06:51:28.848Z,28.70
2018-10-09T06:52:28.817Z,26.30
2018-10-09T06:53:28.832Z,22.20
2018-10-09T06:54:28.839Z,29.70
2018-10-09T06:55:28.814Z,40.40
2018-10-09T06:56:28.845Z,38.70
2018-10-09T06:57:28.813Z,42.90
2018-10-09T06:58:28.813Z,43.10
2018-10-09T06:59:28.813Z,42.50
2018-10-09T07:00:28.819Z,37.60
2018-10-09T07:01:28.848Z,38.70
2018-10-09T07:02:28.814Z,40.30
2018-10-09T07:03:28.814Z,36.80
2018-10-09T07:04:28.812Z,36.50
2018-10-09T07:05:28.813Z,36.80
2018-10-09T07:06:28.898Z,37.70
2018-10-09T07:07:28.817Z,44.80
2018-10-09T07:08:28.814Z,35.40
2018-10-09T07:09:28.815Z,41.40
2018-10-09T07:10:28.813Z,34.70
2018-10-09T07:11:28.845Z,34.80
2018-10-09T07:12:28.818Z,32.10
2018-10-09T07:13:28.814Z,29.00
2018-10-09T07:14:28.814Z,30.50
2018-10-09T07:15:28.815Z,32.50
2018-10-09T07:16:28.843Z,37.30
2018-10-09T07:17:28.825Z,36.70
2018-10-09T07:18:28.820Z,26.00
2018-10-09T07:19:28.816Z,22.00
2018-10-09T07:20:28.821Z,20.50
2018-10-09T07:21:28.850Z,19.50
2018-10-09T07:22:28.822Z,21.50
2018-10-09T07:23:28.824Z,19.20
2018-10-09T07:24:28.823Z,19.20
2018-10-09T07:25:28.833Z,19.70
2018-10-09T07:26:28.852Z,19.90
2018-10-09T07:27:28.820Z,20.80
2018-10-09T07:28:28.828Z,20.50
2018-10-09T07:29:28.825Z,20.30
2018-10-09T07:30:28.858Z,18.90
2018-10-09T07:31:28.876Z,19.20
2018-10-09T07:32:28.824Z,18.70
2018-10-09T07:33:28.828Z,18.80
2018-10-09T07:34:28.828Z,21.70
2018-10-09T07:35:28.860Z,20.60
2018-10-09T07:36:28.832Z,20.80
2018-10-09T07:37:28.839Z,20.50
2018-10-09T07:38:28.833Z,22.20
2018-10-09T07:39:28.832Z,21.10
2018-10-09T07:40:28.860Z,19.50
2018-10-09T07:41:28.837Z,20.00
2018-10-09T07:42:28.836Z,20.90
2018-10-09T07:43:28.839Z,19.50
2018-10-09T07:44:28.838Z,17.90
2018-10-09T07:45:28.870Z,17.60
2018-10-09T07:46:28.837Z,17.70
2018-10-09T07:47:28.844Z,18.20
2018-10-09T07:48:28.843Z,16.30
2018-10-09T07:49:28.879Z,16.30
2018-10-09T07:50:28.853Z,16.50
2018-10-09T07:51:28.881Z,15.90
2018-10-09T07:52:29.834Z,15.10
2018-10-09T07:53:28.865Z,15.00
2018-10-09T07:54:28.861Z,14.80
2018-10-09T07:55:28.867Z,14.50
2018-10-09T07:56:28.898Z,14.40
2018-10-09T07:57:28.905Z,14.70
2018-10-09T07:58:28.896Z,14.10
2018-10-09T07:59:28.879Z,14.40
2018-10-09T08:00:28.883Z,14.50
2018-10-09T08:01:28.914Z,14.50
2018-10-09T08:02:28.896Z,14.40
2018-10-09T08:03:28.895Z,15.40
2018-10-09T08:04:28.900Z,15.50
2018-10-09T08:05:28.908Z,15.40
2018-10-09T08:06:28.938Z,15.30
2018-10-09T08:07:28.911Z,14.40
2018-10-09T08:08:28.915Z,14.90
2018-10-09T08:09:28.921Z,14.50
2018-10-09T08:10:29.003Z,13.40
2018-10-09T08:11:28.953Z,14.40
2018-10-09T08:12:29.043Z,13.90
2018-10-09T08:13:28.943Z,13.70
2018-10-09T08:14:28.937Z,13.60
2018-10-09T08:15:29.192Z,14.30
2018-10-09T08:16:29.031Z,16.50
2018-10-09T08:17:28.951Z,17.40
2018-10-09T08:18:28.956Z,15.40
2018-10-09T08:19:28.957Z,15.20
2018-10-09T08:20:28.961Z,14.60
2018-10-09T08:21:29.379Z,15.00
2018-10-09T08:22:29.805Z,15.00
2018-10-09T08:23:28.980Z,14.70
2018-10-09T08:24:28.991Z,15.00
2018-10-09T08:25:28.992Z,14.80
2018-10-09T08:26:29.022Z,13.80
2018-10-09T08:27:29.000Z,14.60
2018-10-09T08:28:29.709Z,13.40
2018-10-09T08:29:29.013Z,14.10
2018-10-09T08:30:29.043Z,13.60
2018-10-09T08:31:29.017Z,14.20
2018-10-09T08:32:29.058Z,13.80
2018-10-09T08:33:29.030Z,13.90
2018-10-09T08:34:29.048Z,13.70
2018-10-09T08:35:29.709Z,14.30
2018-10-09T08:36:30.858Z,14.10
2018-10-09T08:37:29.074Z,13.90
2018-10-09T08:38:29.053Z,14.20
2018-10-09T08:39:30.541Z,14.40
2018-10-09T08:40:29.179Z,14.30
2018-10-09T08:41:29.072Z,14.20
2018-10-09T08:42:29.785Z,14.40
2018-10-09T08:43:29.078Z,14.40
2018-10-09T08:44:29.086Z,14.60
2018-10-09T08:45:29.122Z,13.70
2018-10-09T08:46:29.096Z,14.20
2018-10-09T08:47:29.102Z,14.20
2018-10-09T08:48:29.143Z,13.90
2018-10-09T08:49:29.130Z,13.80
2018-10-09T08:50:29.123Z,13.40
2018-10-09T08:51:29.131Z,13.00
2018-10-09T08:52:29.139Z,13.80
2018-10-09T08:53:29.172Z,13.20
2018-10-09T08:54:29.154Z,12.80
2018-10-09T08:55:29.479Z,13.40
2018-10-09T08:56:29.163Z,13.80
2018-10-09T08:57:29.245Z,14.00
2018-10-09T08:58:29.212Z,13.40
2018-10-09T08:59:29.195Z,13.60
2018-10-09T09:00:29.201Z,13.80
2018-10-09T09:01:29.215Z,13.40
2018-10-09T09:02:29.226Z,13.20
2018-10-09T09:03:29.300Z,13.50
2018-10-09T09:04:29.240Z,14.30
2018-10-09T09:05:29.245Z,13.30
2018-10-09T09:06:29.264Z,13.90
2018-10-09T09:07:29.264Z,13.70
2018-10-09T09:08:29.297Z,14.20
2018-10-09T09:09:29.301Z,13.20
2018-10-09T09:10:29.297Z,13.20
2018-10-09T09:11:29.327Z,13.20
2018-10-09T09:12:29.310Z,12.70
2018-10-09T09:13:29.352Z,12.70
2018-10-09T09:14:29.328Z,12.60
2018-10-09T09:15:29.447Z,13.00
2018-10-09T09:16:29.343Z,13.10
2018-10-09T09:17:29.355Z,13.00
2018-10-09T09:18:29.389Z,12.70
2018-10-09T09:19:29.374Z,13.80
2018-10-09T09:20:29.424Z,13.20
2018-10-09T09:21:29.387Z,13.90
2018-10-09T09:22:29.398Z,14.40
2018-10-09T09:23:29.430Z,14.80
2018-10-09T09:24:29.411Z,14.50
2018-10-09T09:25:29.418Z,14.70
2018-10-09T09:26:29.495Z,14.50
2018-10-09T09:27:29.524Z,14.00
2018-10-09T09:28:29.471Z,14.70
2018-10-09T09:29:29.454Z,15.00
2018-10-09T09:30:29.461Z,14.70
2018-10-09T09:31:29.459Z,14.20
2018-10-09T09:32:29.604Z,14.80
2018-10-09T09:33:29.504Z,14.20
2018-10-09T09:34:29.485Z,14.60
2018-10-09T09:35:29.498Z,14.60
2018-10-09T09:36:29.523Z,14.50
2018-10-09T09:37:29.504Z,14.20
2018-10-09T09:38:30.337Z,13.50
2018-10-09T09:39:29.543Z,14.20
2018-10-09T09:40:29.523Z,14.30
2018-10-09T09:41:29.530Z,13.30
2018-10-09T09:42:29.536Z,14.40
2018-10-09T09:43:29.545Z,13.80
2018-10-09T09:44:29.577Z,13.90
2018-10-09T09:45:30.385Z,13.70
2018-10-09T09:46:29.571Z,13.90
2018-10-09T09:47:29.572Z,13.90
2018-10-09T09:48:29.609Z,14.00
2018-10-09T09:49:29.581Z,14.10
2018-10-09T09:50:29.589Z,14.70
2018-10-09T09:51:30.476Z,14.90
2018-10-09T09:52:29.601Z,14.90
2018-10-09T09:53:29.648Z,15.60
2018-10-09T09:54:29.614Z,15.30
2018-10-09T09:55:29.621Z,16.80
2018-10-09T09:56:29.628Z,18.70
2018-10-09T09:57:29.631Z,21.80
2018-10-09T09:58:29.756Z,23.20
2018-10-09T09:59:29.642Z,22.90
2018-10-09T10:00:29.658Z,22.20
2018-10-09T10:01:29.656Z,19.70
2018-10-09T10:02:29.665Z,18.60
2018-10-09T10:03:29.733Z,18.20
2018-10-09T10:04:29.679Z,18.20
2018-10-09T10:05:29.678Z,18.40
2018-10-09T10:06:29.683Z,17.80
2018-10-09T10:07:29.690Z,18.50
2018-10-09T10:08:29.723Z,16.70
2018-10-09T10:09:29.705Z,17.30
2018-10-09T10:10:29.711Z,16.80
2018-10-09T10:11:29.712Z,17.50
2018-10-09T10:12:29.836Z,19.80
2018-10-09T10:13:29.724Z,16.90
2018-10-09T10:14:29.731Z,18.20
2018-10-09T10:15:29.736Z,17.40
2018-10-09T10:16:29.747Z,17.30
2018-10-09T10:17:29.776Z,17.60
2018-10-09T10:18:29.756Z,16.50
2018-10-09T10:19:29.764Z,16.60
2018-10-09T10:20:29.772Z,16.60
2018-10-09T10:21:29.822Z,17.00
2018-10-09T10:22:29.824Z,18.10
2018-10-09T10:23:29.793Z,17.60
2018-10-09T10:24:29.800Z,18.60
2018-10-09T10:25:30.380Z,17.40
2018-10-09T10:26:29.849Z,17.10
2018-10-09T10:27:29.876Z,16.40
2018-10-09T10:28:29.885Z,17.70
2018-10-09T10:29:29.847Z,17.50
2018-10-09T10:30:29.852Z,19.20
2018-10-09T10:31:29.855Z,16.40
2018-10-09T10:32:29.863Z,15.50
2018-10-09T10:33:29.903Z,15.60
2018-10-09T10:34:29.879Z,17.20
2018-10-09T10:35:29.901Z,15.50
2018-10-09T10:36:29.905Z,16.10
2018-10-09T10:37:29.906Z,16.00
2018-10-09T10:38:29.938Z,16.30
2018-10-09T10:39:29.922Z,16.90
2018-10-09T10:40:29.929Z,15.40
2018-10-09T10:41:29.946Z,15.30
2018-10-09T10:42:29.951Z,16.50
2018-10-09T10:43:29.987Z,15.90
2018-10-09T10:44:29.974Z,16.10
2018-10-09T10:45:30.134Z,16.20
2018-10-09T10:46:29.995Z,17.60
2018-10-09T10:47:30.031Z,17.10
2018-10-09T10:48:30.017Z,16.70
2018-10-09T10:49:30.059Z,16.10
2018-10-09T10:50:30.048Z,15.60
2018-10-09T10:51:30.052Z,16.20
2018-10-09T10:52:30.099Z,16.30
2018-10-09T10:53:30.082Z,15.50
2018-10-09T10:54:30.086Z,15.40
2018-10-09T10:55:30.104Z,15.30
2018-10-09T10:56:30.123Z,14.90
2018-10-09T10:57:30.211Z,14.90
2018-10-09T10:58:30.149Z,15.50
2018-10-09T10:59:30.166Z,15.30
2018-10-09T11:00:30.180Z,16.00
2018-10-09T11:01:30.232Z,17.50
2018-10-09T11:02:30.238Z,15.90
2018-10-09T11:03:30.218Z,15.50
2018-10-09T11:04:30.237Z,16.20
2018-10-09T11:05:30.248Z,16.00
2018-10-09T11:06:30.262Z,16.40
2018-10-09T11:07:30.298Z,15.90
2018-10-09T11:08:30.319Z,15.90
2018-10-09T11:09:30.303Z,15.60
2018-10-09T11:10:30.317Z,15.30
2018-10-09T11:11:30.327Z,15.90
2018-10-09T11:12:30.370Z,16.10
2018-10-09T11:13:30.359Z,15.80
2018-10-09T11:14:30.384Z,15.50
2018-10-09T11:15:30.387Z,15.30
2018-10-09T11:16:30.403Z,15.60
2018-10-09T11:17:30.440Z,14.70
2018-10-09T11:18:30.431Z,15.00
2018-10-09T11:19:30.443Z,15.20
2018-10-09T11:20:30.459Z,14.30
2018-10-09T11:21:30.484Z,14.40
2018-10-09T11:22:30.515Z,14.10
2018-10-09T11:23:30.504Z,14.00
2018-10-09T11:24:30.513Z,14.10
2018-10-09T11:25:30.534Z,14.10
2018-10-09T11:26:30.548Z,14.10
2018-10-09T11:27:30.588Z,13.50
2018-10-09T11:28:30.603Z,14.20
2018-10-09T11:29:30.592Z,13.70
2018-10-09T11:30:30.603Z,14.00
2018-10-09T11:31:30.624Z,14.10
2018-10-09T11:32:30.678Z,13.70
2018-10-09T11:33:30.661Z,14.40
2018-10-09T11:34:30.676Z,13.90
2018-10-09T11:35:30.727Z,13.60
2018-10-09T11:36:30.708Z,12.80
2018-10-09T11:37:30.785Z,11.90
2018-10-09T11:38:30.774Z,11.80
2018-10-09T11:39:30.761Z,12.80
2018-10-09T11:40:30.779Z,11.50
2018-10-09T11:41:30.802Z,11.80
2018-10-09T11:42:30.849Z,11.70
2018-10-09T11:43:30.830Z,11.30
2018-10-09T11:44:30.875Z,13.30
2018-10-09T11:45:30.863Z,12.00
2018-10-09T11:46:30.888Z,11.80
2018-10-09T11:47:30.906Z,11.80
2018-10-09T11:48:30.950Z,11.60
2018-10-09T11:49:30.937Z,13.10
2018-10-09T11:50:30.964Z,13.70
2018-10-09T11:51:30.978Z,13.30
2018-10-09T11:52:30.998Z,14.60
2018-10-09T11:53:31.055Z,13.30
2018-10-09T11:54:31.036Z,12.20
2018-10-09T11:55:31.058Z,12.10
2018-10-09T11:56:31.075Z,11.20
2018-10-09T11:57:31.091Z,11.80
2018-10-09T11:58:31.159Z,10.60
2018-10-09T11:59:31.131Z,10.80
2018-10-09T12:00:31.154Z,10.90
2018-10-09T12:01:31.780Z,10.90
2018-10-09T12:02:31.280Z,10.80
2018-10-09T12:03:32.785Z,10.90
2018-10-09T12:04:31.230Z,11.70
2018-10-09T12:05:33.035Z,12.10
2018-10-09T12:06:31.277Z,12.10
2018-10-09T12:07:31.281Z,11.30
2018-10-09T12:08:31.343Z,11.60
2018-10-09T12:09:31.326Z,11.10
2018-10-09T12:10:31.348Z,11.10
2018-10-09T12:11:31.361Z,11.90
2018-10-09T12:12:31.914Z,11.10
2018-10-09T12:13:31.460Z,10.90
2018-10-09T12:14:31.418Z,11.10
2018-10-09T12:15:31.462Z,11.40
2018-10-09T12:16:31.462Z,11.60
2018-10-09T12:17:31.506Z,10.80
2018-10-09T12:18:31.500Z,10.80
2018-10-09T12:19:31.519Z,10.70
2018-10-09T12:20:31.545Z,11.00
2018-10-09T12:21:32.444Z,11.30
2018-10-09T12:22:31.605Z,10.90
2018-10-09T12:23:31.621Z,10.30
2018-10-09T12:24:31.635Z,11.40
2018-10-09T12:25:31.639Z,10.30
2018-10-09T12:26:31.655Z,10.10
2018-10-09T12:27:31.708Z,9.90
2018-10-09T12:28:31.721Z,10.00
2018-10-09T12:29:31.716Z,9.90
2018-10-09T12:30:31.736Z,10.00
2018-10-09T12:31:31.757Z,9.90
2018-10-09T12:32:31.800Z,9.80
2018-10-09T12:33:31.827Z,10.60
2018-10-09T12:34:31.816Z,10.90
2018-10-09T12:35:31.833Z,10.20
2018-10-09T12:36:31.853Z,9.90
2018-10-09T12:37:31.901Z,10.00
2018-10-09T12:38:31.964Z,10.10
2018-10-09T12:39:31.915Z,10.80
2018-10-09T12:40:31.930Z,10.20
2018-10-09T12:41:31.950Z,9.80